EAL422 KDCA-KMIA
Flight info
| Callsign | EAL422 |
|---|---|
| Flight time | N/A |
| Altitude | 32000 |
| Route | AMEEE1 SCOOB PAACK Q97 ELMSZ/N0469F340 Q97 DEBRL CSTAL3 |
| Aircraft | B722/M-SDFGHRWY/C |
Departure
| Time | 2026-05-01 13:48 |
|---|---|
| Airport | Ronald Reagan Washington National Airport (KDCA) |
Arrival
| Time | N/A |
|---|---|
| Airport | Miami International Airport (KMIA) |
| Time | Latitude | Longitude | Altitude | Speed | Heading |
|---|---|---|---|---|---|
| 2026-05-01 13:23 | 38.85669 | -77.04263 | 27 ft | 0 kts | 168° |
| 2026-05-01 13:35 | 38.85684 | -77.04267 | 27 ft | 3 kts | 168° |
| 2026-05-01 13:35 | 38.85702 | -77.04299 | 27 ft | 3 kts | 72° |
| 2026-05-01 13:36 | 38.85707 | -77.04278 | 27 ft | 4 kts | 72° |
| 2026-05-01 13:36 | 38.85715 | -77.04245 | 27 ft | 4 kts | 72° |
| 2026-05-01 13:36 | 38.85726 | -77.04202 | 27 ft | 0 kts | 72° |
| 2026-05-01 13:41 | 38.85728 | -77.04194 | 27 ft | 3 kts | 72° |
| 2026-05-01 13:41 | 38.85736 | -77.04137 | 28 ft | 8 kts | 102° |
| 2026-05-01 13:41 | 38.85689 | -77.04068 | 28 ft | 13 kts | 142° |
| 2026-05-01 13:42 | 38.85613 | -77.03992 | 28 ft | 15 kts | 143° |
| 2026-05-01 13:42 | 38.85500 | -77.03952 | 28 ft | 13 kts | 175° |
| 2026-05-01 13:42 | 38.85386 | -77.03940 | 27 ft | 20 kts | 176° |
| 2026-05-01 13:42 | 38.85227 | -77.03924 | 27 ft | 26 kts | 175° |
| 2026-05-01 13:43 | 38.85060 | -77.03909 | 27 ft | 26 kts | 175° |
| 2026-05-01 13:43 | 38.84898 | -77.03891 | 27 ft | 19 kts | 176° |
| 2026-05-01 13:43 | 38.84766 | -77.03890 | 27 ft | 19 kts | 196° |
| 2026-05-01 13:43 | 38.84650 | -77.03956 | 28 ft | 17 kts | 206° |
| 2026-05-01 13:44 | 38.84556 | -77.04016 | 28 ft | 15 kts | 183° |
| 2026-05-01 13:44 | 38.84481 | -77.04003 | 28 ft | 13 kts | 170° |
| 2026-05-01 13:44 | 38.84377 | -77.03979 | 30 ft | 17 kts | 160° |
| 2026-05-01 13:44 | 38.84306 | -77.03862 | 28 ft | 10 kts | 115° |
| 2026-05-01 13:45 | 38.84249 | -77.03820 | 28 ft | 12 kts | 146° |
| 2026-05-01 13:45 | 38.84229 | -77.03795 | 28 ft | 0 kts | 124° |
| 2026-05-01 13:45 | 38.84223 | -77.03784 | 28 ft | 2 kts | 124° |
| 2026-05-01 13:46 | 38.84203 | -77.03746 | 27 ft | 9 kts | 124° |
| 2026-05-01 13:46 | 38.84185 | -77.03708 | 27 ft | 3 kts | 66° |
| 2026-05-01 13:46 | 38.84208 | -77.03687 | 27 ft | 5 kts | 13° |
| 2026-05-01 13:46 | 38.84266 | -77.03688 | 27 ft | 22 kts | 356° |
| 2026-05-01 13:47 | 38.84642 | -77.03725 | 27 ft | 86 kts | 355° |
| 2026-05-01 13:47 | 38.85432 | -77.03805 | 28 ft | 140 kts | 356° |
| 2026-05-01 13:47 | 38.86526 | -77.03907 | 176 ft | 171 kts | 354° |
| 2026-05-01 13:47 | 38.87682 | -77.04512 | 594 ft | 190 kts | 326° |
| 2026-05-01 13:48 | 38.88738 | -77.05573 | 1336 ft | 191 kts | 319° |
| 2026-05-01 13:48 | 38.89697 | -77.06696 | 2251 ft | 185 kts | 318° |
| 2026-05-01 13:48 | 38.90554 | -77.08010 | 2604 ft | 192 kts | 301° |
| 2026-05-01 13:48 | 38.91118 | -77.09485 | 2854 ft | 184 kts | 297° |
| 2026-05-01 13:49 | 38.91855 | -77.10936 | 2896 ft | 203 kts | 317° |
| 2026-05-01 13:49 | 38.92977 | -77.12032 | 3386 ft | 203 kts | 329° |
| 2026-05-01 13:49 | 38.94185 | -77.12974 | 4041 ft | 207 kts | 330° |
| 2026-05-01 13:49 | 38.95459 | -77.13927 | 4570 ft | 215 kts | 332° |
| 2026-05-01 13:50 | 38.96883 | -77.14806 | 4909 ft | 246 kts | 343° |
| 2026-05-01 13:50 | 38.98636 | -77.14921 | 5702 ft | 261 kts | 9° |
| 2026-05-01 13:50 | 39.00394 | -77.14054 | 6521 ft | 280 kts | 28° |
| 2026-05-01 13:50 | 39.02014 | -77.12470 | 7180 ft | 304 kts | 42° |
| 2026-05-01 13:51 | 39.03297 | -77.10225 | 7994 ft | 322 kts | 63° |
| 2026-05-01 13:51 | 39.03935 | -77.07391 | 8823 ft | 339 kts | 84° |
| 2026-05-01 13:51 | 39.03918 | -77.04341 | 9659 ft | 352 kts | 95° |
| 2026-05-01 13:51 | 39.03548 | -77.01355 | 10412 ft | 323 kts | 105° |
| 2026-05-01 13:52 | 39.02709 | -76.98624 | 10417 ft | 337 kts | 122° |
| 2026-05-01 13:52 | 39.01383 | -76.96183 | 11341 ft | 329 kts | 135° |
| 2026-05-01 13:52 | 38.99679 | -76.94219 | 11935 ft | 332 kts | 150° |
| 2026-05-01 13:52 | 38.97652 | -76.92830 | 12593 ft | 329 kts | 164° |
| 2026-05-01 13:53 | 38.95466 | -76.91873 | 13090 ft | 337 kts | 170° |
| 2026-05-01 13:53 | 38.90760 | -76.90274 | 13779 ft | 364 kts | 169° |
| 2026-05-01 13:53 | 38.88315 | -76.89299 | 14284 ft | 363 kts | 168° |
| 2026-05-01 13:54 | 38.85968 | -76.88342 | 15028 ft | 347 kts | 170° |
| 2026-05-01 13:54 | 38.83623 | -76.87475 | 15486 ft | 353 kts | 172° |
| 2026-05-01 13:54 | 38.81258 | -76.86620 | 16257 ft | 354 kts | 171° |
| 2026-05-01 13:54 | 38.78882 | -76.85715 | 16903 ft | 359 kts | 171° |
| 2026-05-01 13:55 | 38.76477 | -76.84784 | 17543 ft | 362 kts | 171° |
| 2026-05-01 13:55 | 38.74048 | -76.83866 | 18009 ft | 371 kts | 172° |
| 2026-05-01 13:55 | 38.71506 | -76.82927 | 18276 ft | 384 kts | 172° |
| 2026-05-01 13:55 | 38.68972 | -76.81964 | 18873 ft | 387 kts | 172° |
| 2026-05-01 13:56 | 38.66384 | -76.80976 | 19404 ft | 390 kts | 172° |
| 2026-05-01 13:56 | 38.63771 | -76.79992 | 19948 ft | 393 kts | 173° |
| 2026-05-01 13:56 | 38.61136 | -76.79007 | 20473 ft | 396 kts | 173° |
| 2026-05-01 13:56 | 38.58479 | -76.78006 | 20985 ft | 400 kts | 173° |
| 2026-05-01 13:57 | 38.55806 | -76.76996 | 21517 ft | 402 kts | 173° |
| 2026-05-01 13:57 | 38.53109 | -76.75980 | 22049 ft | 405 kts | 173° |
| 2026-05-01 13:57 | 38.50394 | -76.74965 | 22520 ft | 409 kts | 174° |
| 2026-05-01 13:57 | 38.47657 | -76.73939 | 23006 ft | 412 kts | 174° |
| 2026-05-01 13:58 | 38.44905 | -76.72906 | 23470 ft | 415 kts | 174° |
| 2026-05-01 13:58 | 38.42117 | -76.71863 | 23876 ft | 417 kts | 175° |
| 2026-05-01 13:58 | 38.39313 | -76.71013 | 24241 ft | 413 kts | 181° |
| 2026-05-01 13:58 | 38.36484 | -76.70545 | 24613 ft | 408 kts | 187° |
| 2026-05-01 13:59 | 38.33648 | -76.70283 | 24954 ft | 410 kts | 188° |
| 2026-05-01 13:59 | 38.30780 | -76.69881 | 25330 ft | 418 kts | 185° |
| 2026-05-01 13:59 | 38.27888 | -76.69310 | 25694 ft | 422 kts | 184° |
| 2026-05-01 13:59 | 38.24977 | -76.68784 | 26035 ft | 422 kts | 186° |
| 2026-05-01 14:00 | 38.22059 | -76.68366 | 26359 ft | 423 kts | 187° |
| 2026-05-01 14:00 | 38.19115 | -76.67937 | 26735 ft | 428 kts | 187° |
| 2026-05-01 14:00 | 38.16153 | -76.67438 | 27111 ft | 432 kts | 186° |
| 2026-05-01 14:00 | 38.13167 | -76.66927 | 27468 ft | 434 kts | 187° |
| 2026-05-01 14:01 | 38.10163 | -76.66458 | 27824 ft | 435 kts | 188° |
| 2026-05-01 14:01 | 38.07159 | -76.66127 | 28173 ft | 432 kts | 192° |
| 2026-05-01 14:01 | 38.04167 | -76.66011 | 28503 ft | 430 kts | 194° |
| 2026-05-01 14:01 | 38.01162 | -76.65909 | 28823 ft | 436 kts | 193° |
| 2026-05-01 14:02 | 37.98152 | -76.65676 | 29180 ft | 441 kts | 191° |
| 2026-05-01 14:02 | 37.95078 | -76.65400 | 29504 ft | 443 kts | 192° |
| 2026-05-01 14:02 | 37.91959 | -76.65198 | 29814 ft | 443 kts | 193° |
| 2026-05-01 14:02 | 37.88871 | -76.65036 | 30119 ft | 446 kts | 193° |
| 2026-05-01 14:03 | 37.85759 | -76.64834 | 30375 ft | 450 kts | 193° |
| 2026-05-01 14:03 | 37.82629 | -76.64598 | 30627 ft | 452 kts | 193° |
| 2026-05-01 14:03 | 37.79522 | -76.64381 | 30865 ft | 453 kts | 193° |
| 2026-05-01 14:03 | 37.76366 | -76.64186 | 31104 ft | 455 kts | 193° |
| 2026-05-01 14:04 | 37.73191 | -76.63985 | 31337 ft | 458 kts | 193° |
| 2026-05-01 14:04 | 37.70008 | -76.63766 | 31574 ft | 460 kts | 193° |
| 2026-05-01 14:04 | 37.66799 | -76.63544 | 31790 ft | 462 kts | 193° |
| 2026-05-01 14:04 | 37.64623 | -76.63401 | 31938 ft | 463 kts | 193° |
| 2026-05-01 14:05 | 37.60356 | -76.63223 | 32088 ft | 457 kts | 199° |
| 2026-05-01 14:05 | 37.57289 | -76.63790 | 32110 ft | 441 kts | 208° |
| 2026-05-01 14:05 | 37.51436 | -76.66034 | 32103 ft | 441 kts | 214° |
| 2026-05-01 14:06 | 37.48497 | -76.67287 | 32091 ft | 452 kts | 212° |
| 2026-05-01 14:06 | 37.45439 | -76.68406 | 32099 ft | 461 kts | 210° |
| 2026-05-01 14:06 | 37.39353 | -76.70644 | 32096 ft | 437 kts | 213° |
| 2026-05-01 14:07 | 37.36509 | -76.71777 | 32060 ft | 425 kts | 213° |
| 2026-05-01 14:07 | 37.33701 | -76.72886 | 32054 ft | 422 kts | 213° |
| 2026-05-01 14:08 | 37.25341 | -76.76063 | 32068 ft | 419 kts | 213° |
| 2026-05-01 14:08 | 37.19694 | -76.78244 | 32066 ft | 430 kts | 212° |
| 2026-05-01 14:09 | 37.13915 | -76.80433 | 32075 ft | 438 kts | 212° |
| 2026-05-01 14:09 | 37.08026 | -76.82690 | 32083 ft | 446 kts | 212° |
| 2026-05-01 14:10 | 37.02037 | -76.84960 | 32079 ft | 454 kts | 212° |
| 2026-05-01 14:10 | 36.96019 | -76.87241 | 32075 ft | 451 kts | 212° |
| 2026-05-01 14:10 | 36.93050 | -76.88352 | 32074 ft | 440 kts | 212° |
| 2026-05-01 14:11 | 36.90154 | -76.89446 | 32073 ft | 429 kts | 213° |
| 2026-05-01 14:11 | 36.84549 | -76.91584 | 32078 ft | 415 kts | 213° |
| 2026-05-01 14:11 | 36.81798 | -76.92622 | 32075 ft | 410 kts | 213° |
| 2026-05-01 14:12 | 36.76376 | -76.94675 | 32087 ft | 407 kts | 213° |
| 2026-05-01 14:12 | 36.70886 | -76.96757 | 32089 ft | 418 kts | 213° |
| 2026-05-01 14:13 | 36.66209 | -76.98513 | 32094 ft | 427 kts | 213° |
| 2026-05-01 14:13 | 36.59473 | -77.01049 | 32100 ft | 437 kts | 212° |
| 2026-05-01 14:14 | 36.53623 | -77.03239 | 32090 ft | 441 kts | 212° |
| 2026-05-01 14:14 | 36.47756 | -77.05438 | 32074 ft | 441 kts | 212° |
| 2026-05-01 14:15 | 36.41885 | -77.07635 | 32076 ft | 440 kts | 212° |
| 2026-05-01 14:15 | 36.36022 | -77.09826 | 32077 ft | 440 kts | 212° |
| 2026-05-01 14:16 | 36.30158 | -77.12014 | 32078 ft | 440 kts | 212° |
| 2026-05-01 14:16 | 36.24298 | -77.14197 | 32076 ft | 440 kts | 212° |
| 2026-05-01 14:17 | 36.18438 | -77.16376 | 32080 ft | 440 kts | 212° |
| 2026-05-01 14:17 | 36.12565 | -77.18557 | 32075 ft | 440 kts | 212° |
| 2026-05-01 14:18 | 36.06702 | -77.20730 | 32073 ft | 440 kts | 212° |
| 2026-05-01 14:18 | 36.01825 | -77.22536 | 32071 ft | 440 kts | 212° |
| 2026-05-01 14:19 | 35.94967 | -77.25085 | 32077 ft | 438 kts | 213° |
| 2026-05-01 14:19 | 35.92304 | -77.26550 | 32105 ft | 415 kts | 224° |
| 2026-05-01 14:19 | 35.89909 | -77.28466 | 32100 ft | 406 kts | 229° |
| 2026-05-01 14:20 | 35.83412 | -77.35032 | 32072 ft | 405 kts | 230° |
| 2026-05-01 14:21 | 35.78932 | -77.39194 | 32072 ft | 404 kts | 231° |
| 2026-05-01 14:21 | 35.74548 | -77.43508 | 32078 ft | 405 kts | 231° |
| 2026-05-01 14:22 | 35.67855 | -77.49898 | 32078 ft | 406 kts | 231° |
| 2026-05-01 14:22 | 35.63401 | -77.54181 | 32075 ft | 407 kts | 230° |
| 2026-05-01 14:23 | 35.58930 | -77.58454 | 32078 ft | 407 kts | 230° |
| 2026-05-01 14:23 | 35.54456 | -77.62739 | 32077 ft | 408 kts | 230° |
| 2026-05-01 14:24 | 35.49968 | -77.67020 | 32071 ft | 409 kts | 230° |
| 2026-05-01 14:24 | 35.45475 | -77.71307 | 32075 ft | 409 kts | 230° |
| 2026-05-01 14:25 | 35.40978 | -77.75587 | 32078 ft | 410 kts | 230° |
| 2026-05-01 14:25 | 35.36462 | -77.79881 | 32067 ft | 411 kts | 230° |
| 2026-05-01 14:26 | 35.29693 | -77.86305 | 32076 ft | 412 kts | 230° |
| 2026-05-01 14:27 | 35.25154 | -77.90604 | 32060 ft | 412 kts | 230° |
| 2026-05-01 14:27 | 35.20622 | -77.94890 | 32071 ft | 413 kts | 230° |
| 2026-05-01 14:28 | 35.13801 | -78.01330 | 32080 ft | 413 kts | 230° |
| 2026-05-01 14:28 | 35.09246 | -78.05623 | 32074 ft | 413 kts | 230° |
| 2026-05-01 14:29 | 35.04697 | -78.09904 | 32072 ft | 413 kts | 229° |
| 2026-05-01 14:30 | 34.96349 | -78.17744 | 32084 ft | 413 kts | 229° |
| 2026-05-01 14:31 | 34.89512 | -78.24149 | 32085 ft | 413 kts | 229° |
| 2026-05-01 14:31 | 34.84951 | -78.28414 | 32080 ft | 413 kts | 229° |
| 2026-05-01 14:32 | 34.80395 | -78.32669 | 32073 ft | 413 kts | 229° |
| 2026-05-01 14:32 | 34.75823 | -78.36934 | 32067 ft | 415 kts | 229° |
| 2026-05-01 14:33 | 34.71234 | -78.41206 | 32063 ft | 416 kts | 229° |
| 2026-05-01 14:33 | 34.66645 | -78.45473 | 32069 ft | 415 kts | 229° |
| 2026-05-01 14:34 | 34.62051 | -78.49738 | 32076 ft | 415 kts | 229° |
| 2026-05-01 14:34 | 34.57453 | -78.54003 | 32075 ft | 416 kts | 229° |
| 2026-05-01 14:35 | 34.52885 | -78.58230 | 32077 ft | 416 kts | 229° |
| 2026-05-01 14:35 | 34.48288 | -78.62482 | 32071 ft | 415 kts | 229° |
| 2026-05-01 14:36 | 34.43691 | -78.66726 | 32058 ft | 415 kts | 229° |
| 2026-05-01 14:36 | 34.39070 | -78.70946 | 32063 ft | 419 kts | 227° |
| 2026-05-01 14:37 | 34.34193 | -78.74914 | 32071 ft | 423 kts | 225° |
| 2026-05-01 14:37 | 34.29375 | -78.78975 | 32070 ft | 421 kts | 227° |
| 2026-05-01 14:38 | 34.24532 | -78.82997 | 32069 ft | 422 kts | 226° |
| 2026-05-01 14:38 | 34.19698 | -78.87017 | 32053 ft | 421 kts | 226° |
| 2026-05-01 14:39 | 34.14870 | -78.91036 | 32047 ft | 421 kts | 226° |
| 2026-05-01 14:39 | 34.10046 | -78.95042 | 32043 ft | 421 kts | 226° |
| 2026-05-01 14:40 | 34.05216 | -78.99053 | 32040 ft | 421 kts | 226° |
| 2026-05-01 14:40 | 34.00387 | -79.03052 | 32040 ft | 421 kts | 226° |
| 2026-05-01 14:41 | 33.95559 | -79.07048 | 32044 ft | 421 kts | 226° |
| 2026-05-01 14:41 | 33.90730 | -79.11038 | 32047 ft | 421 kts | 226° |
| 2026-05-01 14:42 | 33.85927 | -79.15001 | 32050 ft | 421 kts | 225° |
| 2026-05-01 14:42 | 33.81091 | -79.18986 | 32048 ft | 421 kts | 225° |
| 2026-05-01 14:43 | 33.76256 | -79.22964 | 32052 ft | 421 kts | 225° |
| 2026-05-01 14:43 | 33.71413 | -79.26944 | 32037 ft | 422 kts | 225° |
| 2026-05-01 14:44 | 33.66572 | -79.30924 | 32031 ft | 421 kts | 226° |
| 2026-05-01 14:44 | 33.59402 | -79.37070 | 31979 ft | 429 kts | 226° |
| 2026-05-01 14:45 | 33.56954 | -79.39124 | 32264 ft | 429 kts | 226° |
| 2026-05-01 14:45 | 33.52060 | -79.43274 | 32547 ft | 433 kts | 226° |
| 2026-05-01 14:45 | 33.49600 | -79.45367 | 32757 ft | 434 kts | 226° |
| 2026-05-01 14:46 | 33.47124 | -79.47456 | 32926 ft | 437 kts | 226° |
| 2026-05-01 14:46 | 33.42136 | -79.51669 | 33269 ft | 440 kts | 226° |
| 2026-05-01 14:46 | 33.39633 | -79.53788 | 33430 ft | 442 kts | 226° |
| 2026-05-01 14:47 | 33.37118 | -79.55910 | 33592 ft | 444 kts | 226° |
| 2026-05-01 14:47 | 33.34586 | -79.58042 | 33752 ft | 446 kts | 226° |
| 2026-05-01 14:47 | 33.32047 | -79.60182 | 33908 ft | 448 kts | 226° |
| 2026-05-01 14:48 | 33.26941 | -79.64483 | 34007 ft | 449 kts | 226° |
| 2026-05-01 14:48 | 33.19383 | -79.70825 | 33998 ft | 436 kts | 226° |
| 2026-05-01 14:49 | 33.09612 | -79.79017 | 33991 ft | 425 kts | 226° |
| 2026-05-01 14:50 | 32.99944 | -79.87100 | 33999 ft | 424 kts | 226° |
| 2026-05-01 14:51 | 32.92732 | -79.93116 | 34001 ft | 423 kts | 226° |
| 2026-05-01 14:52 | 32.85501 | -79.99134 | 33998 ft | 422 kts | 226° |
| 2026-05-01 14:53 | 32.78285 | -80.05127 | 33990 ft | 422 kts | 226° |
| 2026-05-01 14:53 | 32.73472 | -80.09119 | 33992 ft | 422 kts | 226° |
| 2026-05-01 14:54 | 32.68657 | -80.13106 | 33990 ft | 422 kts | 226° |
| 2026-05-01 14:54 | 32.63844 | -80.17087 | 33982 ft | 422 kts | 226° |
| 2026-05-01 14:55 | 32.59030 | -80.21061 | 33979 ft | 421 kts | 226° |
| 2026-05-01 14:55 | 32.54217 | -80.25032 | 33976 ft | 422 kts | 226° |
| 2026-05-01 14:56 | 32.49247 | -80.28817 | 33967 ft | 434 kts | 219° |
| 2026-05-01 14:56 | 32.43745 | -80.32029 | 33976 ft | 444 kts | 218° |
| 2026-05-01 14:57 | 32.38335 | -80.35569 | 33985 ft | 447 kts | 220° |
| 2026-05-01 14:57 | 32.29959 | -80.40786 | 33992 ft | 457 kts | 219° |
| 2026-05-01 14:58 | 32.24335 | -80.44391 | 33989 ft | 462 kts | 218° |
| 2026-05-01 14:58 | 32.18641 | -80.47934 | 33988 ft | 462 kts | 218° |
| 2026-05-01 14:59 | 32.12969 | -80.51523 | 33979 ft | 462 kts | 218° |
| 2026-05-01 14:59 | 32.07282 | -80.55080 | 33976 ft | 463 kts | 218° |
| 2026-05-01 15:00 | 31.98756 | -80.60427 | 33959 ft | 461 kts | 218° |
| 2026-05-01 15:01 | 31.93123 | -80.63944 | 33948 ft | 455 kts | 218° |
| 2026-05-01 15:01 | 31.87556 | -80.67426 | 33934 ft | 451 kts | 218° |
| 2026-05-01 15:02 | 31.82065 | -80.70847 | 33945 ft | 448 kts | 218° |
| 2026-05-01 15:02 | 31.76574 | -80.74270 | 33941 ft | 445 kts | 218° |
| 2026-05-01 15:03 | 31.71102 | -80.77675 | 33942 ft | 445 kts | 218° |
| 2026-05-01 15:03 | 31.65618 | -80.81081 | 33940 ft | 446 kts | 218° |
| 2026-05-01 15:04 | 31.60120 | -80.84492 | 33941 ft | 447 kts | 218° |
| 2026-05-01 15:04 | 31.54613 | -80.87904 | 33940 ft | 448 kts | 217° |
| 2026-05-01 15:05 | 31.49090 | -80.91321 | 33938 ft | 449 kts | 217° |
| 2026-05-01 15:05 | 31.43566 | -80.94734 | 33943 ft | 449 kts | 217° |
| 2026-05-01 15:06 | 31.38027 | -80.98152 | 33939 ft | 450 kts | 217° |
| 2026-05-01 15:06 | 31.32488 | -81.01565 | 33942 ft | 450 kts | 217° |
| 2026-05-01 15:07 | 31.26908 | -81.04911 | 33926 ft | 457 kts | 211° |
| 2026-05-01 15:07 | 31.23800 | -81.05951 | 33938 ft | 473 kts | 199° |
| 2026-05-01 15:07 | 31.20531 | -81.06377 | 33949 ft | 482 kts | 193° |
| 2026-05-01 15:08 | 31.13762 | -81.06382 | 33948 ft | 490 kts | 187° |
| 2026-05-01 15:08 | 31.06993 | -81.06465 | 33963 ft | 483 kts | 192° |
| 2026-05-01 15:09 | 31.00245 | -81.06678 | 33949 ft | 487 kts | 189° |
| 2026-05-01 15:09 | 30.93468 | -81.06749 | 33951 ft | 485 kts | 191° |
| 2026-05-01 15:10 | 30.86711 | -81.06944 | 33945 ft | 486 kts | 189° |
| 2026-05-01 15:10 | 30.76576 | -81.07182 | 33944 ft | 485 kts | 190° |
| 2026-05-01 15:11 | 30.66428 | -81.07309 | 33953 ft | 485 kts | 190° |
| 2026-05-01 15:12 | 30.59690 | -81.07558 | 33959 ft | 483 kts | 191° |
| 2026-05-01 15:12 | 30.49637 | -81.08222 | 33951 ft | 483 kts | 191° |
| 2026-05-01 15:14 | 30.32932 | -81.09205 | 33953 ft | 482 kts | 191° |
| 2026-05-01 15:14 | 30.22900 | -81.09808 | 33952 ft | 481 kts | 191° |
| 2026-05-01 15:15 | 30.09524 | -81.10606 | 33961 ft | 481 kts | 190° |
| 2026-05-01 15:16 | 29.96169 | -81.11401 | 33975 ft | 480 kts | 190° |
| 2026-05-01 15:18 | 29.80614 | -81.12306 | 33967 ft | 481 kts | 189° |
| 2026-05-01 15:19 | 29.67189 | -81.12329 | 33968 ft | 481 kts | 188° |
| 2026-05-01 15:19 | 29.57124 | -81.12366 | 33985 ft | 482 kts | 187° |
| 2026-05-01 15:20 | 29.47101 | -81.12811 | 33983 ft | 481 kts | 188° |
| 2026-05-01 15:21 | 29.40407 | -81.12996 | 33984 ft | 481 kts | 188° |
| 2026-05-01 15:21 | 29.33721 | -81.13289 | 33983 ft | 481 kts | 188° |
| 2026-05-01 15:22 | 29.23688 | -81.11361 | 33983 ft | 498 kts | 167° |
| 2026-05-01 15:22 | 29.17156 | -81.08626 | 33981 ft | 499 kts | 167° |
| 2026-05-01 15:23 | 29.10543 | -81.06297 | 33986 ft | 498 kts | 169° |
| 2026-05-01 15:23 | 29.03961 | -81.03758 | 33968 ft | 500 kts | 167° |
| 2026-05-01 15:24 | 28.97361 | -81.01324 | 33966 ft | 498 kts | 168° |
| 2026-05-01 15:24 | 28.90761 | -80.98855 | 33961 ft | 499 kts | 167° |
| 2026-05-01 15:25 | 28.84166 | -80.96391 | 33952 ft | 498 kts | 168° |
| 2026-05-01 15:25 | 28.77566 | -80.93946 | 33955 ft | 499 kts | 167° |
| 2026-05-01 15:26 | 28.71111 | -80.91115 | 33943 ft | 503 kts | 160° |
| 2026-05-01 15:26 | 28.64727 | -80.87859 | 33978 ft | 501 kts | 163° |
| 2026-05-01 15:27 | 28.58253 | -80.84931 | 33973 ft | 501 kts | 162° |
| 2026-05-01 15:28 | 28.48626 | -80.80275 | 33975 ft | 501 kts | 163° |
| 2026-05-01 15:28 | 28.42186 | -80.77247 | 33973 ft | 501 kts | 161° |
| 2026-05-01 15:29 | 28.32538 | -80.72669 | 33942 ft | 501 kts | 162° |
| 2026-05-01 15:30 | 28.19654 | -80.66719 | 33959 ft | 497 kts | 166° |
| 2026-05-01 15:31 | 27.99663 | -80.60793 | 33981 ft | 495 kts | 171° |
| 2026-05-01 15:32 | 27.86325 | -80.56811 | 33974 ft | 495 kts | 169° |
| 2026-05-01 15:34 | 27.66350 | -80.50886 | 33992 ft | 496 kts | 168° |